createdAt,value
2022-10-31T00:01:21.195Z,12.70
2022-10-31T00:03:48.984Z,12.50
2022-10-31T00:06:19.437Z,12.70
2022-10-31T00:08:47.627Z,12.80
2022-10-31T00:11:15.209Z,12.80
2022-10-31T00:13:42.634Z,12.70
2022-10-31T00:16:22.100Z,12.40
2022-10-31T00:18:51.042Z,12.50
2022-10-31T00:21:18.672Z,12.60
2022-10-31T00:23:45.918Z,12.70
2022-10-31T00:26:13.661Z,12.80
2022-10-31T00:28:40.979Z,12.80
2022-10-31T00:31:09.751Z,12.80
2022-10-31T00:33:38.781Z,12.70
2022-10-31T00:36:08.008Z,12.70
2022-10-31T00:38:35.885Z,12.80
2022-10-31T00:41:03.372Z,12.60
2022-10-31T00:43:30.644Z,12.50
2022-10-31T00:45:59.614Z,12.60
2022-10-31T00:48:26.942Z,12.60
2022-10-31T00:50:54.435Z,12.70
2022-10-31T00:53:22.305Z,12.70
2022-10-31T00:55:49.821Z,12.80
2022-10-31T00:58:17.599Z,12.90
2022-10-31T01:00:57.277Z,12.90
2022-10-31T01:03:27.969Z,12.80
2022-10-31T01:06:04.478Z,12.30
2022-10-31T01:08:34.641Z,12.10
2022-10-31T01:11:06.061Z,12.20
2022-10-31T01:13:34.661Z,12.30
2022-10-31T01:16:03.671Z,12.50
2022-10-31T01:18:34.550Z,12.50
2022-10-31T01:21:11.888Z,12.50
2022-10-31T01:23:39.384Z,12.50
2022-10-31T01:26:08.549Z,12.60
2022-10-31T01:28:38.558Z,12.50
2022-10-31T01:31:08.817Z,12.50
2022-10-31T01:33:37.487Z,12.30
2022-10-31T01:36:26.568Z,12.30
2022-10-31T01:38:57.283Z,12.30
2022-10-31T01:41:26.756Z,12.00
2022-10-31T01:43:57.165Z,11.60
2022-10-31T01:46:45.437Z,11.40
2022-10-31T01:49:33.442Z,11.10
2022-10-31T01:52:19.902Z,11.00
2022-10-31T01:54:54.820Z,11.00
2022-10-31T01:57:23.816Z,11.10
2022-10-31T01:59:58.267Z,11.10
2022-10-31T02:02:27.813Z,11.10
2022-10-31T02:04:55.733Z,11.20
2022-10-31T02:07:32.080Z,11.30
2022-10-31T02:10:01.590Z,11.30
2022-10-31T02:12:31.236Z,11.30
2022-10-31T02:15:01.756Z,11.30
2022-10-31T02:17:31.067Z,11.50
2022-10-31T02:20:15.882Z,11.50
2022-10-31T02:23:11.089Z,11.50
2022-10-31T02:25:58.099Z,11.10
2022-10-31T02:28:54.032Z,10.90
2022-10-31T02:31:42.619Z,11.10
2022-10-31T02:34:37.806Z,11.40
2022-10-31T02:37:09.135Z,11.60
2022-10-31T02:39:50.249Z,11.60
2022-10-31T02:42:36.247Z,10.50
2022-10-31T02:45:13.821Z,10.10
2022-10-31T02:47:42.796Z,10.20
2022-10-31T02:50:39.189Z,10.40
2022-10-31T02:53:06.979Z,10.70
2022-10-31T02:55:35.071Z,10.80
2022-10-31T02:58:12.952Z,10.80
2022-10-31T03:00:59.528Z,10.90
2022-10-31T03:03:44.162Z,11.10
2022-10-31T03:06:25.089Z,11.30
2022-10-31T03:09:08.114Z,11.50
2022-10-31T03:11:58.379Z,11.50
2022-10-31T03:14:52.589Z,11.00
2022-10-31T03:17:40.865Z,10.90
2022-10-31T03:20:11.395Z,11.00
2022-10-31T03:22:43.497Z,11.10
2022-10-31T03:25:12.835Z,10.90
2022-10-31T03:27:42.198Z,10.80
2022-10-31T03:30:10.103Z,10.90
2022-10-31T03:32:55.902Z,10.90
2022-10-31T03:35:27.549Z,10.40
2022-10-31T03:37:56.541Z,10.40
2022-10-31T03:40:26.159Z,10.50
2022-10-31T03:42:59.621Z,10.50
2022-10-31T03:45:30.947Z,10.60
2022-10-31T03:48:00.661Z,10.60
2022-10-31T03:50:41.301Z,10.20
2022-10-31T03:53:17.776Z,10.20
2022-10-31T03:56:00.529Z,10.40
2022-10-31T03:58:38.542Z,10.70
2022-10-31T04:01:10.763Z,10.80
2022-10-31T04:03:40.012Z,10.90
2022-10-31T04:06:12.624Z,10.70
2022-10-31T04:08:49.273Z,10.80
2022-10-31T04:11:24.681Z,10.90
2022-10-31T04:14:13.318Z,10.70
2022-10-31T04:16:43.956Z,10.10
2022-10-31T04:19:14.008Z,10.10
2022-10-31T04:21:44.398Z,10.20
2022-10-31T04:24:12.249Z,10.50
2022-10-31T04:26:40.962Z,10.60
2022-10-31T04:29:08.403Z,10.40
2022-10-31T04:31:35.725Z,10.30
2022-10-31T04:34:03.307Z,10.20
2022-10-31T04:36:31.200Z,10.30
2022-10-31T04:38:59.874Z,10.30
2022-10-31T04:41:38.404Z,10.40
2022-10-31T04:44:13.401Z,10.50
2022-10-31T04:46:41.377Z,10.70
2022-10-31T04:49:09.758Z,10.80
2022-10-31T04:51:37.631Z,10.70
2022-10-31T04:54:06.048Z,10.40
2022-10-31T04:56:33.490Z,10.40
2022-10-31T04:59:11.541Z,10.30
2022-10-31T05:01:49.662Z,10.00
2022-10-31T05:04:22.482Z,10.00
2022-10-31T05:06:50.100Z,10.20
2022-10-31T05:09:17.395Z,10.30
2022-10-31T05:11:45.807Z,10.30
2022-10-31T05:14:33.803Z,10.30
2022-10-31T05:17:19.932Z,10.30
2022-10-31T05:20:08.712Z,10.40
2022-10-31T05:22:57.790Z,10.60
2022-10-31T05:25:28.637Z,10.70
2022-10-31T05:27:57.607Z,10.50
2022-10-31T05:30:28.958Z,10.20
2022-10-31T05:32:56.686Z,9.90
2022-10-31T05:35:39.195Z,9.80
2022-10-31T05:38:24.836Z,9.90
2022-10-31T05:40:58.835Z,10.10
2022-10-31T05:43:26.336Z,10.10
2022-10-31T05:45:59.995Z,9.80
2022-10-31T05:48:46.352Z,9.90
2022-10-31T05:51:34.387Z,10.00
2022-10-31T05:54:10.706Z,9.60
2022-10-31T05:56:40.886Z,9.70
2022-10-31T05:59:08.097Z,9.90
2022-10-31T06:01:35.854Z,9.40
2022-10-31T06:04:06.884Z,9.60
2022-10-31T06:06:36.378Z,9.80
2022-10-31T06:09:03.837Z,10.00
2022-10-31T06:11:35.466Z,10.00
2022-10-31T06:14:02.810Z,10.00
2022-10-31T06:16:44.363Z,10.30
2022-10-31T06:19:38.211Z,10.40
2022-10-31T06:22:05.923Z,10.60
2022-10-31T06:24:34.040Z,10.80
2022-10-31T06:27:10.012Z,11.00
2022-10-31T06:29:37.426Z,11.10
2022-10-31T06:32:07.261Z,11.30
2022-10-31T06:34:40.927Z,11.50
2022-10-31T06:37:10.884Z,11.40
2022-10-31T06:40:08.558Z,11.40
2022-10-31T06:43:04.297Z,11.60
2022-10-31T06:45:33.495Z,11.70
2022-10-31T06:48:21.380Z,11.90
2022-10-31T06:51:12.054Z,12.00
2022-10-31T06:53:39.384Z,12.20
2022-10-31T06:56:09.439Z,12.40
2022-10-31T06:58:42.006Z,12.40
2022-10-31T07:01:11.841Z,12.50
2022-10-31T07:03:40.056Z,12.70
2022-10-31T07:06:08.707Z,12.80
2022-10-31T07:08:36.083Z,12.90
2022-10-31T07:11:04.410Z,13.00
2022-10-31T07:13:31.866Z,13.10
2022-10-31T07:16:07.864Z,13.20
2022-10-31T07:18:36.831Z,13.30
2022-10-31T07:21:04.440Z,13.30
2022-10-31T07:23:33.460Z,13.30
2022-10-31T07:26:20.969Z,13.30
2022-10-31T07:28:49.312Z,13.10
2022-10-31T07:31:20.437Z,12.90
2022-10-31T07:33:47.845Z,12.90
2022-10-31T07:36:45.339Z,13.10
2022-10-31T07:39:13.850Z,13.40
2022-10-31T07:41:42.263Z,13.50
2022-10-31T07:44:10.548Z,13.70
2022-10-31T07:46:56.447Z,13.70
2022-10-31T07:49:47.454Z,13.90
2022-10-31T07:52:33.524Z,14.00
2022-10-31T07:55:21.610Z,14.00
2022-10-31T07:58:07.038Z,13.90
2022-10-31T08:00:43.230Z,14.10
2022-10-31T08:03:16.190Z,14.30
2022-10-31T08:06:03.722Z,14.50
2022-10-31T08:08:51.711Z,14.60
2022-10-31T08:11:20.336Z,14.70
2022-10-31T08:13:48.690Z,14.90
2022-10-31T08:16:16.920Z,15.10
2022-10-31T08:18:54.633Z,15.30
2022-10-31T08:21:22.974Z,15.50
2022-10-31T08:23:50.653Z,15.60
2022-10-31T08:26:21.747Z,15.80
2022-10-31T08:28:52.653Z,16.10
2022-10-31T08:31:25.394Z,16.40
2022-10-31T08:34:14.243Z,16.50
2022-10-31T08:37:00.553Z,16.70
2022-10-31T08:39:36.254Z,16.70
2022-10-31T08:42:04.970Z,16.90
2022-10-31T08:44:32.264Z,16.80
2022-10-31T08:46:59.767Z,16.80
2022-10-31T08:49:27.567Z,16.90
2022-10-31T08:51:56.088Z,17.00
2022-10-31T08:54:25.592Z,17.10
2022-10-31T08:56:56.775Z,17.20
2022-10-31T08:59:41.462Z,17.00
2022-10-31T09:02:27.580Z,17.10
2022-10-31T09:04:59.778Z,17.40
2022-10-31T09:07:27.231Z,17.50
2022-10-31T09:09:56.907Z,17.80
2022-10-31T09:12:25.382Z,18.00
2022-10-31T09:15:11.160Z,18.00
2022-10-31T09:17:49.221Z,18.20
2022-10-31T09:20:25.067Z,18.30
2022-10-31T09:23:00.504Z,18.50
2022-10-31T09:25:30.097Z,18.50
2022-10-31T09:28:50.541Z,18.70
2022-10-31T09:31:28.855Z,18.90
2022-10-31T09:34:35.432Z,19.00
2022-10-31T09:37:06.327Z,18.90
2022-10-31T09:39:36.065Z,19.20
2022-10-31T09:42:30.866Z,19.40
2022-10-31T09:45:09.396Z,19.70
2022-10-31T09:48:03.872Z,19.90
2022-10-31T09:50:48.628Z,19.90
2022-10-31T09:53:42.785Z,19.70
2022-10-31T09:56:17.871Z,19.70
2022-10-31T09:59:07.238Z,20.00
2022-10-31T10:01:40.352Z,20.30
2022-10-31T10:04:48.308Z,20.80
2022-10-31T10:07:29.897Z,21.50
2022-10-31T10:10:51.918Z,22.50
2022-10-31T10:14:02.680Z,23.40
2022-10-31T10:16:48.792Z,24.50
2022-10-31T10:19:40.550Z,26.70
2022-10-31T10:22:21.251Z,28.10
2022-10-31T10:24:58.646Z,28.90
2022-10-31T10:27:38.751Z,29.90
2022-10-31T10:30:16.430Z,30.10
2022-10-31T10:32:50.865Z,30.00
2022-10-31T10:35:33.675Z,29.70
2022-10-31T10:38:39.284Z,29.30
2022-10-31T10:41:14.227Z,28.70
2022-10-31T10:43:41.578Z,28.00
2022-10-31T10:47:06.411Z,27.60
2022-10-31T10:49:59.438Z,27.10
2022-10-31T10:52:50.175Z,26.10
2022-10-31T10:55:32.154Z,26.10
2022-10-31T10:58:10.993Z,25.80
2022-10-31T11:00:49.580Z,25.50
2022-10-31T11:03:19.418Z,25.60
2022-10-31T11:05:52.309Z,25.60
2022-10-31T11:08:34.443Z,25.50
2022-10-31T11:11:32.563Z,25.60
2022-10-31T11:14:26.919Z,25.20
2022-10-31T11:17:12.362Z,25.00
2022-10-31T11:19:40.076Z,24.60
2022-10-31T11:22:18.280Z,24.40
2022-10-31T11:24:48.195Z,24.70
2022-10-31T11:27:25.620Z,24.90
2022-10-31T11:29:58.196Z,25.00
2022-10-31T11:32:29.643Z,25.10
2022-10-31T11:35:01.895Z,25.40
2022-10-31T11:37:36.679Z,25.40
2022-10-31T11:40:08.628Z,25.20
2022-10-31T11:42:43.462Z,25.20
2022-10-31T11:45:20.593Z,25.30
2022-10-31T11:47:56.733Z,25.50
2022-10-31T11:50:48.887Z,25.60
2022-10-31T11:53:22.459Z,25.80
2022-10-31T11:56:06.176Z,26.00
2022-10-31T11:58:34.045Z,26.00
2022-10-31T12:01:01.255Z,25.90
2022-10-31T12:03:47.696Z,26.00
2022-10-31T12:06:40.560Z,26.00
2022-10-31T12:09:25.641Z,25.90
2022-10-31T12:12:09.568Z,26.00
2022-10-31T12:14:58.957Z,26.00
2022-10-31T12:20:48.698Z,26.30
2022-10-31T12:23:28.204Z,26.30
2022-10-31T12:26:42.208Z,26.40
2022-10-31T12:29:40.298Z,26.40
2022-10-31T12:32:19.519Z,26.50
2022-10-31T12:34:59.079Z,25.80
2022-10-31T12:37:55.260Z,25.60
2022-10-31T12:41:00.329Z,26.00
2022-10-31T12:43:37.039Z,26.00
2022-10-31T12:46:09.493Z,26.20
2022-10-31T12:49:04.332Z,26.50
2022-10-31T12:51:39.535Z,26.60
2022-10-31T12:54:44.040Z,26.60
2022-10-31T12:57:37.622Z,26.70
2022-10-31T13:00:17.197Z,26.90
2022-10-31T13:03:00.702Z,26.80
2022-10-31T13:09:28.647Z,27.00
2022-10-31T13:12:05.850Z,26.70
2022-10-31T13:14:42.940Z,26.70
2022-10-31T13:17:29.281Z,26.70
2022-10-31T13:20:15.890Z,26.80
2022-10-31T13:22:48.698Z,27.00
2022-10-31T13:25:40.590Z,26.80
2022-10-31T13:28:47.540Z,26.50
2022-10-31T13:31:15.021Z,26.20
2022-10-31T13:34:00.018Z,26.20
2022-10-31T13:36:41.311Z,26.10
2022-10-31T13:39:52.127Z,26.10
2022-10-31T13:42:40.046Z,26.60
2022-10-31T13:45:31.133Z,26.50
2022-10-31T13:48:21.400Z,26.20
2022-10-31T13:50:59.828Z,26.60
2022-10-31T13:53:57.979Z,26.90
2022-10-31T13:56:32.484Z,26.80
2022-10-31T13:59:10.838Z,27.00
2022-10-31T14:01:47.312Z,27.20
2022-10-31T14:04:31.954Z,27.40
2022-10-31T14:07:07.244Z,27.90
2022-10-31T14:09:38.819Z,27.90
2022-10-31T14:12:27.620Z,27.70
2022-10-31T14:15:15.285Z,27.90
2022-10-31T14:17:53.825Z,28.50
2022-10-31T14:20:43.412Z,28.70
2022-10-31T14:23:29.602Z,28.30
2022-10-31T14:26:32.082Z,27.80
2022-10-31T14:29:17.120Z,28.10
2022-10-31T14:31:58.275Z,29.20
2022-10-31T14:34:36.066Z,29.10
2022-10-31T14:37:26.938Z,29.40
2022-10-31T14:40:08.960Z,29.90
2022-10-31T14:42:58.074Z,28.90
2022-10-31T14:45:33.073Z,28.30
2022-10-31T14:48:23.760Z,28.10
2022-10-31T14:50:57.909Z,28.20
2022-10-31T14:53:35.931Z,27.50
2022-10-31T14:56:07.049Z,27.20
2022-10-31T14:58:38.382Z,26.10
2022-10-31T15:01:06.605Z,24.40
2022-10-31T15:03:44.825Z,23.50
2022-10-31T15:06:26.885Z,22.90
2022-10-31T15:08:55.950Z,22.40
2022-10-31T15:11:26.747Z,22.10
2022-10-31T15:13:56.247Z,21.70
2022-10-31T15:19:22.106Z,21.10
2022-10-31T15:21:52.497Z,20.70
2022-10-31T15:24:20.702Z,20.30
2022-10-31T15:26:51.973Z,20.00
2022-10-31T15:29:25.521Z,20.10
2022-10-31T15:31:58.386Z,20.20
2022-10-31T15:34:44.628Z,20.30
2022-10-31T15:37:14.921Z,20.30
2022-10-31T15:39:43.951Z,20.50
2022-10-31T15:42:25.790Z,20.50
2022-10-31T15:45:02.060Z,20.40
2022-10-31T15:47:31.961Z,20.40
2022-10-31T15:50:00.908Z,20.30
2022-10-31T15:52:41.019Z,20.30
2022-10-31T15:55:10.997Z,20.30
2022-10-31T15:57:47.558Z,20.30
2022-10-31T16:00:34.500Z,20.30
2022-10-31T16:03:17.069Z,20.30
2022-10-31T16:05:46.610Z,20.10
2022-10-31T16:08:31.711Z,19.50
2022-10-31T16:11:04.276Z,19.50
2022-10-31T16:13:42.447Z,19.30
2022-10-31T16:16:34.228Z,18.80
2022-10-31T16:19:05.855Z,18.50
2022-10-31T16:21:37.646Z,18.20
2022-10-31T16:24:21.589Z,18.00
2022-10-31T16:26:55.033Z,18.00
2022-10-31T16:29:42.642Z,18.00
2022-10-31T16:32:52.663Z,18.20
2022-10-31T16:35:32.972Z,17.90
2022-10-31T16:38:00.707Z,17.50
2022-10-31T16:40:29.521Z,17.40
2022-10-31T16:43:00.524Z,17.30
2022-10-31T16:45:36.544Z,17.40
2022-10-31T16:48:13.139Z,17.40
2022-10-31T16:50:40.805Z,17.20
2022-10-31T16:53:13.687Z,17.40
2022-10-31T16:55:54.068Z,17.60
2022-10-31T16:58:31.250Z,17.90
2022-10-31T17:00:59.402Z,18.10
2022-10-31T17:03:27.265Z,18.20
2022-10-31T17:05:56.647Z,18.20
2022-10-31T17:08:25.056Z,17.90
2022-10-31T17:10:55.113Z,17.80
2022-10-31T17:13:31.387Z,17.80
2022-10-31T17:16:01.410Z,17.80
2022-10-31T17:18:30.851Z,17.50
2022-10-31T17:21:00.839Z,17.20
2022-10-31T17:23:29.675Z,16.80
2022-10-31T17:25:58.058Z,16.70
2022-10-31T17:28:28.768Z,16.50
2022-10-31T17:30:59.428Z,16.30
2022-10-31T17:33:27.317Z,16.10
2022-10-31T17:35:55.009Z,16.20
2022-10-31T17:38:22.880Z,16.50
2022-10-31T17:40:50.284Z,16.70
2022-10-31T17:43:17.528Z,16.80
2022-10-31T17:45:46.358Z,16.70
2022-10-31T17:48:14.804Z,16.20
2022-10-31T17:50:42.328Z,16.10
2022-10-31T17:53:09.582Z,16.10
2022-10-31T17:55:37.673Z,16.10
2022-10-31T17:58:05.832Z,16.00
2022-10-31T18:00:36.753Z,16.10
2022-10-31T18:03:04.935Z,16.40
2022-10-31T18:05:33.733Z,16.60
2022-10-31T18:08:04.079Z,16.70
2022-10-31T18:10:32.800Z,16.70
2022-10-31T18:13:00.642Z,16.50
2022-10-31T18:15:34.052Z,16.20
2022-10-31T18:18:01.805Z,16.00
2022-10-31T18:20:29.846Z,16.00
2022-10-31T18:22:57.396Z,15.50
2022-10-31T18:25:24.707Z,15.30
2022-10-31T18:27:51.890Z,15.10
2022-10-31T18:30:19.229Z,15.00
2022-10-31T18:32:51.065Z,15.20
2022-10-31T18:35:18.901Z,15.40
2022-10-31T18:37:46.194Z,15.60
2022-10-31T18:40:13.890Z,15.90
2022-10-31T18:42:41.283Z,16.10
2022-10-31T18:45:11.987Z,16.00
2022-10-31T18:47:44.491Z,15.80
2022-10-31T18:50:12.577Z,15.90
2022-10-31T18:52:39.894Z,16.10
2022-10-31T18:55:07.628Z,16.20
2022-10-31T18:57:34.898Z,16.30
2022-10-31T19:00:04.401Z,16.00
2022-10-31T19:02:32.079Z,15.60
2022-10-31T19:05:00.082Z,15.50
2022-10-31T19:07:27.472Z,15.60
2022-10-31T19:09:54.767Z,15.80
2022-10-31T19:12:22.389Z,15.80
2022-10-31T19:14:49.613Z,15.60
2022-10-31T19:17:16.939Z,15.20
2022-10-31T19:19:44.260Z,15.00
2022-10-31T19:22:11.517Z,14.80
2022-10-31T19:24:39.108Z,14.80
2022-10-31T19:27:06.321Z,15.00
2022-10-31T19:29:34.109Z,15.20
2022-10-31T19:32:01.696Z,15.30
2022-10-31T19:34:30.159Z,15.40
2022-10-31T19:36:57.641Z,15.60
2022-10-31T19:39:24.939Z,15.70
2022-10-31T19:41:52.192Z,15.30
2022-10-31T19:44:19.657Z,15.30
2022-10-31T19:46:53.445Z,15.20
2022-10-31T19:49:21.605Z,15.00
2022-10-31T19:51:48.936Z,14.80
2022-10-31T19:54:16.217Z,14.70
2022-10-31T19:56:47.241Z,14.50
2022-10-31T19:59:15.018Z,14.20
2022-10-31T20:01:42.853Z,14.20
2022-10-31T20:04:10.451Z,14.20
2022-10-31T20:06:40.341Z,14.30
2022-10-31T20:09:10.375Z,14.50
2022-10-31T20:11:42.800Z,14.70
2022-10-31T20:14:16.057Z,14.80
2022-10-31T20:16:44.825Z,14.80
2022-10-31T20:19:12.122Z,14.90
2022-10-31T20:21:40.956Z,15.00
2022-10-31T20:24:10.694Z,15.00
2022-10-31T20:26:40.896Z,14.80
2022-10-31T20:29:12.385Z,14.20
2022-10-31T20:31:40.122Z,14.30
2022-10-31T20:34:07.763Z,14.50
2022-10-31T20:36:36.813Z,14.10
2022-10-31T20:39:05.373Z,13.80
2022-10-31T20:41:32.804Z,13.60
2022-10-31T20:44:00.748Z,13.70
2022-10-31T20:46:28.834Z,13.80
2022-10-31T20:48:56.185Z,13.80
2022-10-31T20:51:27.591Z,13.80
2022-10-31T20:53:57.079Z,13.80
2022-10-31T20:56:26.530Z,14.00
2022-10-31T20:58:55.718Z,14.20
2022-10-31T21:01:30.119Z,14.40
2022-10-31T21:03:58.993Z,14.60
2022-10-31T21:06:27.487Z,14.80
2022-10-31T21:08:55.713Z,15.00
2022-10-31T21:11:25.707Z,14.90
2022-10-31T21:13:53.237Z,14.70
2022-10-31T21:16:26.001Z,14.50
2022-10-31T21:18:54.039Z,14.00
2022-10-31T21:21:30.704Z,13.90
2022-10-31T21:24:14.759Z,14.00
2022-10-31T21:26:46.395Z,14.00
2022-10-31T21:29:15.189Z,13.80
2022-10-31T21:31:43.422Z,13.50
2022-10-31T21:34:11.647Z,13.50
2022-10-31T21:36:39.534Z,13.50
2022-10-31T21:39:08.310Z,13.60
2022-10-31T21:41:35.651Z,13.90
2022-10-31T21:44:03.092Z,13.90
2022-10-31T21:46:32.815Z,13.90
2022-10-31T21:49:03.664Z,14.00
2022-10-31T21:51:34.197Z,13.90
2022-10-31T21:54:20.047Z,13.50
2022-10-31T21:56:47.542Z,13.20
2022-10-31T21:59:15.168Z,13.30
2022-10-31T22:01:42.558Z,13.30
2022-10-31T22:04:10.360Z,13.50
2022-10-31T22:06:38.262Z,13.40
2022-10-31T22:09:07.476Z,13.40
2022-10-31T22:11:35.247Z,13.40
2022-10-31T22:14:03.827Z,13.40
2022-10-31T22:16:35.142Z,13.50
2022-10-31T22:19:05.908Z,13.60
2022-10-31T22:21:51.403Z,13.50
2022-10-31T22:24:18.900Z,13.60
2022-10-31T22:26:46.316Z,13.50
2022-10-31T22:29:20.506Z,13.30
2022-10-31T22:31:53.381Z,13.40
2022-10-31T22:34:25.304Z,13.30
2022-10-31T22:36:55.486Z,13.50
2022-10-31T22:39:23.110Z,13.60
2022-10-31T22:41:50.468Z,13.40
2022-10-31T22:44:17.688Z,13.50
2022-10-31T22:46:44.948Z,13.50
2022-10-31T22:49:15.148Z,13.40
2022-10-31T22:51:43.638Z,13.10
2022-10-31T22:54:17.398Z,13.00
2022-10-31T22:56:45.519Z,12.90
2022-10-31T22:59:16.693Z,12.70
2022-10-31T23:01:47.263Z,12.50
2022-10-31T23:04:15.327Z,12.50
2022-10-31T23:06:43.035Z,12.80
2022-10-31T23:09:14.547Z,13.10
2022-10-31T23:11:42.167Z,13.30
2022-10-31T23:14:18.722Z,13.50
2022-10-31T23:16:55.537Z,13.30
2022-10-31T23:19:29.422Z,13.20
2022-10-31T23:22:04.237Z,13.00
2022-10-31T23:24:41.841Z,12.80
2022-10-31T23:27:18.177Z,12.70
2022-10-31T23:29:53.151Z,12.70
2022-10-31T23:32:23.423Z,13.00
2022-10-31T23:34:54.310Z,13.10
2022-10-31T23:37:24.215Z,13.30
2022-10-31T23:39:51.548Z,13.30
2022-10-31T23:42:19.278Z,13.10
2022-10-31T23:44:47.220Z,12.70
2022-10-31T23:47:15.313Z,12.70
2022-10-31T23:49:43.453Z,12.80
2022-10-31T23:52:12.076Z,12.90
2022-10-31T23:54:41.596Z,12.90
2022-10-31T23:57:10.603Z,13.00
2022-10-31T23:59:38.537Z,13.10
